Time;durP1;ratioP1;P1;durP2;ratioP2;P2;SDS_P1;SDS_P2;PMS_P1;PMS_P2;Temp;Humidity;BMP_temperature;BMP_pressure;BME280_temperature;BME280_humidity;BME280_pressure;Samples;Min_cycle;Max_cycle;Signal;HPM_P1;HPM_P2
2022/05/11 00:01:43;;;;;;;8.10;5.00;;;;;;;11.83;46.23;100564.05;88252;1273;97562;-64
2022/05/11 00:03:52;;;;;;;6.40;3.60;;;;;;;11.81;46.28;100561.32;88222;1274;89129;-65
2022/05/11 00:06:05;;;;;;;6.40;3.80;;;;;;;11.79;46.27;100559.52;88237;1273;94182;-65
2022/05/11 00:08:14;;;;;;;7.20;3.70;;;;;;;11.77;46.45;100558.73;88230;1273;79417;-63
2022/05/11 00:10:27;;;;;;;6.00;3.90;;;;;;;11.76;46.40;100556.48;88232;1273;83509;-63
2022/05/11 00:12:40;;;;;;;6.30;3.10;;;;;;;11.74;46.47;100554.42;88244;1273;98007;-65
2022/05/11 00:14:49;;;;;;;8.10;3.70;;;;;;;11.70;46.58;100552.23;88218;1273;89101;-66
2022/05/11 00:16:59;;;;;;;6.00;3.30;;;;;;;11.66;46.74;100552.17;88210;1273;95831;-66
2022/05/11 00:19:08;;;;;;;8.30;4.10;;;;;;;11.64;46.94;100553.54;88228;1274;78512;-65
2022/05/11 00:21:21;;;;;;;7.10;3.50;;;;;;;11.64;46.84;100553.52;88264;1273;80404;-66
2022/05/11 00:23:31;;;;;;;4.90;3.40;;;;;;;11.59;46.94;100542.41;88242;1273;98947;-65
2022/05/11 00:25:44;;;;;;;7.90;4.20;;;;;;;11.55;47.03;100536.25;88234;1273;88265;-65
2022/05/11 00:27:54;;;;;;;9.60;3.80;;;;;;;11.53;47.18;100537.23;88283;1273;92759;-66
2022/05/11 00:30:03;;;;;;;6.80;3.80;;;;;;;11.52;47.18;100528.27;88215;1273;78234;-64
2022/05/11 00:32:12;;;;;;;6.30;3.70;;;;;;;11.48;47.40;100525.30;88241;1273;83749;-63
2022/05/11 00:34:21;;;;;;;7.80;3.70;;;;;;;11.45;47.50;100516.38;88267;1273;96132;-65
2022/05/11 00:36:30;;;;;;;6.30;4.10;;;;;;;11.45;47.62;100510.55;88289;1273;87656;-65
2022/05/11 00:38:40;;;;;;;8.60;4.10;;;;;;;11.45;47.69;100509.08;88220;1274;96288;-65
2022/05/11 00:40:53;;;;;;;7.90;3.80;;;;;;;11.47;47.80;100507.36;88265;1273;78354;-65
2022/05/11 00:43:02;;;;;;;7.00;3.80;;;;;;;11.46;47.83;100508.39;88247;1274;83178;-65
2022/05/11 00:45:15;;;;;;;8.70;3.70;;;;;;;11.46;47.91;100509.81;88229;1273;99517;-65
2022/05/11 00:47:28;;;;;;;7.40;4.10;;;;;;;11.45;47.95;100511.92;88287;1273;89539;-66
2022/05/11 00:49:48;;;;;;;6.50;3.20;;;;;;;11.43;47.98;100516.14;88250;1273;92818;-64
2022/05/11 00:52:03;;;;;;;5.70;3.40;;;;;;;11.43;48.04;100510.80;88233;1274;80384;-64
2022/05/11 00:54:13;;;;;;;5.10;3.30;;;;;;;11.41;48.14;100513.88;88202;1274;82209;-65
2022/05/11 00:56:27;;;;;;;7.80;4.00;;;;;;;11.39;48.29;100510.35;88288;1274;99055;-64
2022/05/11 00:58:43;;;;;;;9.90;4.20;;;;;;;11.38;48.42;100509.02;88223;1273;88632;-65
2022/05/11 01:00:55;;;;;;;6.00;3.80;;;;;;;11.38;48.40;100509.09;88269;1273;95001;-65
2022/05/11 01:03:09;;;;;;;8.60;3.40;;;;;;;11.37;48.46;100510.46;88230;1274;78544;-65
2022/05/11 01:05:18;;;;;;;7.60;4.10;;;;;;;11.35;48.58;100511.36;88261;1273;81140;-63
2022/05/11 01:07:29;;;;;;;8.70;4.30;;;;;;;11.34;48.86;100511.42;88260;1273;98775;-63
2022/05/11 01:09:42;;;;;;;9.50;3.70;;;;;;;11.31;49.01;100513.92;88239;1273;88572;-64
2022/05/11 01:11:57;;;;;;;6.80;3.70;;;;;;;11.29;49.06;100515.98;88225;1273;95890;-65
2022/05/11 01:14:09;;;;;;;6.60;4.00;;;;;;;11.24;49.28;100515.23;88257;1273;79735;-66
2022/05/11 01:16:18;;;;;;;5.80;3.60;;;;;;;11.23;49.34;100518.83;88308;1273;81738;-65
2022/05/11 01:18:29;;;;;;;7.80;4.10;;;;;;;11.23;49.27;100519.75;88220;1274;97135;-64
2022/05/11 01:20:39;;;;;;;7.40;4.10;;;;;;;11.25;49.24;100525.73;88271;1273;89036;-65
2022/05/11 01:23:00;;;;;;;7.50;3.60;;;;;;;11.26;49.33;100524.95;88243;1273;95660;-65
2022/05/11 01:25:16;;;;;;;6.30;3.50;;;;;;;11.24;49.45;100522.64;88263;1273;78965;-66
2022/05/11 01:27:37;;;;;;;7.00;3.70;;;;;;;11.24;49.47;100519.79;88228;1273;82805;-65
2022/05/11 01:29:46;;;;;;;6.70;3.60;;;;;;;11.21;49.93;100513.69;88253;1273;98432;-65
2022/05/11 01:31:55;;;;;;;5.70;3.50;;;;;;;11.18;50.07;100513.48;88239;1273;89879;-65
2022/05/11 01:34:04;;;;;;;5.40;3.10;;;;;;;11.17;50.31;100508.27;88230;1273;93806;-65
2022/05/11 01:36:21;;;;;;;6.90;3.80;;;;;;;11.14;50.39;100504.76;88256;1273;77399;-65
2022/05/11 01:38:40;;;;;;;7.00;4.00;;;;;;;11.14;50.50;100495.61;88254;1273;81287;-65
2022/05/11 01:40:49;;;;;;;6.80;3.30;;;;;;;11.13;50.55;100493.80;88262;1273;99418;-65
2022/05/11 01:42:58;;;;;;;6.90;3.80;;;;;;;11.11;50.57;100491.30;88224;1273;88894;-66
2022/05/11 01:45:11;;;;;;;5.40;3.70;;;;;;;11.10;50.69;100486.58;88245;1273;93514;-67
2022/05/11 01:47:20;;;;;;;8.10;4.00;;;;;;;11.09;50.87;100482.27;88242;1273;77670;-67
2022/05/11 01:49:30;;;;;;;7.50;3.90;;;;;;;11.09;50.81;100479.86;88248;1273;83661;-65
2022/05/11 01:51:43;;;;;;;6.60;3.70;;;;;;;11.08;50.85;100476.02;88252;1274;99148;-63
2022/05/11 01:53:54;;;;;;;6.30;4.30;;;;;;;11.05;50.95;100473.30;88221;1273;87187;-64
2022/05/11 01:56:09;;;;;;;6.30;3.80;;;;;;;11.07;50.84;100468.02;88232;1273;93821;-66
2022/05/11 01:58:22;;;;;;;5.30;4.10;;;;;;;11.08;50.77;100466.33;88196;1274;81448;-65
2022/05/11 02:00:35;;;;;;;8.60;3.60;;;;;;;11.08;50.86;100458.80;88253;1274;82442;-66
2022/05/11 02:02:47;;;;;;;5.70;3.50;;;;;;;11.06;50.89;100456.09;88240;1273;99029;-64
2022/05/11 02:09:54;;;;;;;6.20;4.10;;;;;;;10.98;51.21;100448.41;88252;1273;78175;-64
2022/05/11 02:12:10;;;;;;;7.00;4.00;;;;;;;10.97;51.33;100441.52;88161;1274;81901;-64
2022/05/11 02:14:19;;;;;;;6.70;3.70;;;;;;;10.97;51.31;100438.27;88272;1273;98570;-64
2022/05/11 02:16:31;;;;;;;6.30;3.90;;;;;;;10.97;51.23;100432.15;88302;1274;88065;-67
2022/05/11 02:18:42;;;;;;;6.10;3.80;;;;;;;10.98;51.16;100431.20;88269;1273;95824;-66
2022/05/11 02:20:55;;;;;;;7.30;4.00;;;;;;;10.99;51.25;100426.10;88169;1275;80631;-65
2022/05/11 02:23:05;;;;;;;7.10;3.60;;;;;;;11.01;51.33;100420.14;88311;1273;83526;-65
2022/05/11 02:25:17;;;;;;;6.80;3.80;;;;;;;11.02;51.27;100413.58;88138;1274;98538;-64
2022/05/11 02:27:25;;;;;;;6.30;3.90;;;;;;;11.03;51.27;100411.26;88208;1274;88615;-67
2022/05/11 02:29:34;;;;;;;8.40;4.20;;;;;;;11.04;51.32;100411.67;88223;1273;94269;-65
2022/05/11 02:31:44;;;;;;;7.20;3.90;;;;;;;11.02;51.37;100414.77;88248;1273;80789;-63
2022/05/11 02:33:56;;;;;;;7.70;3.70;;;;;;;11.02;51.36;100414.08;88254;1273;82936;-64
2022/05/11 02:36:05;;;;;;;8.40;3.70;;;;;;;11.00;51.52;100414.27;88295;1273;99939;-66
2022/05/11 02:38:17;;;;;;;8.80;4.00;;;;;;;11.00;51.61;100410.59;88405;1273;87238;-65
2022/05/11 02:40:33;;;;;;;7.80;4.30;;;;;;;10.97;51.73;100408.90;88178;1276;95228;-65
2022/05/11 02:42:42;;;;;;;9.60;3.90;;;;;;;10.96;51.76;100407.30;88238;1273;80149;-65
2022/05/11 02:44:54;;;;;;;6.50;3.50;;;;;;;10.94;51.93;100407.67;88248;1273;81440;-65
2022/05/11 02:47:08;;;;;;;6.00;4.10;;;;;;;10.95;51.85;100407.97;88200;1274;99101;-65
2022/05/11 02:49:17;;;;;;;7.80;3.40;;;;;;;10.96;51.61;100415.70;88282;1273;86321;-66
2022/05/11 02:51:26;;;;;;;9.30;4.00;;;;;;;10.96;51.61;100415.59;88242;1273;94654;-65
2022/05/11 02:53:35;;;;;;;8.10;3.90;;;;;;;10.98;51.71;100415.35;88241;1273;78467;-65
2022/05/11 02:55:49;;;;;;;7.70;3.70;;;;;;;10.98;51.62;100414.44;88179;1276;80333;-64
2022/05/11 02:57:58;;;;;;;5.50;3.70;;;;;;;11.01;51.48;100415.77;88255;1273;98507;-66
2022/05/11 03:00:12;;;;;;;5.70;3.70;;;;;;;11.00;51.59;100415.42;88234;1273;87942;-66
2022/05/11 03:02:22;;;;;;;7.10;3.70;;;;;;;11.00;51.66;100407.07;88247;1273;96082;-65
2022/05/11 03:04:31;;;;;;;7.20;4.20;;;;;;;11.02;51.68;100406.91;88231;1274;78048;-64
2022/05/11 03:06:42;;;;;;;7.30;3.50;;;;;;;11.03;51.53;100406.86;88137;1276;82454;-67
2022/05/11 03:08:50;;;;;;;7.00;3.80;;;;;;;11.04;51.60;100408.39;88255;1273;98244;-66
2022/05/11 03:10:59;;;;;;;6.10;3.70;;;;;;;11.04;51.51;100403.40;88249;1273;89131;-65
2022/05/11 03:13:10;;;;;;;6.50;3.50;;;;;;;11.03;51.57;100400.40;88231;1273;94209;-65
2022/05/11 03:15:19;;;;;;;9.40;4.90;;;;;;;11.04;51.55;100401.06;88240;1273;78319;-66
2022/05/11 03:17:29;;;;;;;6.70;4.00;;;;;;;11.05;51.49;100402.00;88217;1273;80643;-66
2022/05/11 03:19:38;;;;;;;8.30;3.80;;;;;;;11.06;51.51;100395.36;87897;1274;398557;-66
2022/05/11 03:21:47;;;;;;;7.40;4.10;;;;;;;11.08;51.59;100389.21;88282;1273;86638;-65
2022/05/11 03:23:59;;;;;;;8.70;4.20;;;;;;;11.10;51.62;100386.25;88219;1273;93740;-65
2022/05/11 03:26:08;;;;;;;9.50;4.40;;;;;;;11.11;51.78;100382.06;88239;1273;78441;-65
2022/05/11 03:28:20;;;;;;;7.30;4.20;;;;;;;11.13;51.82;100379.13;88255;1273;83252;-64
2022/05/11 03:30:32;;;;;;;11.20;4.30;;;;;;;11.19;51.78;100383.25;88229;1273;98336;-65
2022/05/11 03:35:12;;;;;;;8.40;4.10;;;;;;;11.32;51.78;100378.79;88222;1274;94308;-64
2022/05/11 03:37:23;;;;;;;8.30;3.90;;;;;;;11.37;51.96;100374.65;88252;1273;78454;-67
2022/05/11 03:39:32;;;;;;;8.60;4.00;;;;;;;11.44;51.81;100373.91;88259;1273;80410;-67
2022/05/11 03:41:41;;;;;;;6.60;3.20;;;;;;;11.50;51.92;100372.09;88238;1273;98570;-65
2022/05/11 03:43:53;;;;;;;7.80;4.10;;;;;;;11.55;51.77;100373.55;88248;1273;89511;-68
2022/05/11 03:46:03;;;;;;;7.50;4.10;;;;;;;11.61;51.78;100372.67;88226;1273;95633;-66
2022/05/11 03:48:16;;;;;;;7.00;4.20;;;;;;;11.65;51.60;100378.82;88235;1273;79369;-66
2022/05/11 03:50:29;;;;;;;7.80;4.30;;;;;;;11.70;51.48;100377.27;88275;1273;80366;-67
2022/05/11 03:52:39;;;;;;;9.10;4.10;;;;;;;11.73;51.53;100370.30;88260;1273;98988;-64
2022/05/11 03:54:51;;;;;;;10.50;4.10;;;;;;;11.78;51.41;100368.27;88274;1273;89168;-65
2022/05/11 03:57:03;;;;;;;8.10;4.20;;;;;;;11.84;51.39;100372.91;88214;1273;92011;-66
2022/05/11 03:59:15;;;;;;;5.50;3.40;;;;;;;11.90;51.24;100367.58;88261;1273;77957;-64
2022/05/11 04:01:27;;;;;;;7.30;3.80;;;;;;;11.99;51.10;100367.80;88268;1273;80688;-66
2022/05/11 04:03:36;;;;;;;8.50;4.20;;;;;;;12.08;51.12;100366.44;88260;1273;96702;-65
2022/05/11 04:05:48;;;;;;;6.00;3.40;;;;;;;12.19;51.10;100369.20;88242;1273;88839;-66
2022/05/11 04:07:57;;;;;;;8.40;4.10;;;;;;;12.32;50.91;100365.23;88224;1273;95188;-66
2022/05/11 04:10:10;;;;;;;8.10;4.30;;;;;;;12.45;50.75;100366.04;88269;1273;78621;-67
2022/05/11 04:12:23;;;;;;;5.70;3.70;;;;;;;12.62;50.64;100369.68;88283;1273;79879;-67
2022/05/11 04:14:32;;;;;;;7.20;4.00;;;;;;;12.76;50.53;100370.40;88264;1273;98717;-66
2022/05/11 04:16:41;;;;;;;7.10;4.00;;;;;;;12.90;50.44;100370.15;88247;1272;89663;-67
2022/05/11 04:18:50;;;;;;;6.90;3.80;;;;;;;13.06;50.18;100368.40;88230;1273;94233;-66
2022/05/11 04:20:59;;;;;;;7.70;3.90;;;;;;;13.18;50.06;100368.43;88252;1273;79599;-64
2022/05/11 04:23:08;;;;;;;8.10;3.90;;;;;;;13.27;49.72;100366.98;88306;1273;81949;-67
2022/05/11 04:25:18;;;;;;;6.60;3.90;;;;;;;13.40;49.60;100362.61;88242;1273;99543;-68
2022/05/11 04:27:31;;;;;;;6.60;4.00;;;;;;;13.54;49.34;100363.73;88288;1273;88867;-67
2022/05/11 04:29:42;;;;;;;6.90;3.90;;;;;;;13.64;49.20;100367.61;88244;1273;94752;-68
2022/05/11 04:31:57;;;;;;;9.30;4.10;;;;;;;13.80;49.02;100359.13;88146;1276;77394;-65
2022/05/11 04:34:11;;;;;;;6.20;3.90;;;;;;;14.02;48.81;100354.73;88259;1273;82462;-66
2022/05/11 04:36:21;;;;;;;6.60;4.30;;;;;;;14.23;48.63;100356.34;88238;1273;98268;-65
2022/05/11 04:38:34;;;;;;;7.80;3.90;;;;;;;14.57;48.70;100351.56;88189;1273;88703;-64
2022/05/11 04:40:43;;;;;;;6.00;4.00;;;;;;;15.17;48.18;100350.98;88253;1273;95943;-69
2022/05/11 04:42:52;;;;;;;9.60;5.50;;;;;;;15.81;47.39;100347.95;88264;1273;79771;-67
2022/05/11 04:45:05;;;;;;;10.00;4.60;;;;;;;16.63;46.61;100350.02;88255;1273;81435;-70
2022/05/11 04:47:18;;;;;;;9.00;4.50;;;;;;;17.28;45.79;100348.23;88261;1273;99623;-65
2022/05/11 04:49:30;;;;;;;8.60;4.20;;;;;;;17.82;45.07;100340.14;88287;1273;87850;-65
2022/05/11 04:51:40;;;;;;;11.20;4.30;;;;;;;18.20;44.33;100333.48;88185;1273;93726;-65
2022/05/11 04:53:49;;;;;;;7.10;4.20;;;;;;;18.38;43.93;100331.11;88234;1273;79780;-65
2022/05/11 04:55:59;;;;;;;7.10;4.40;;;;;;;19.03;43.23;100331.66;88232;1273;82204;-65
2022/05/11 04:58:08;;;;;;;6.50;4.10;;;;;;;19.44;42.51;100336.08;88256;1273;99254;-68
2022/05/11 05:00:22;;;;;;;8.60;3.90;;;;;;;19.21;42.23;100334.17;88256;1273;88569;-69
2022/05/11 05:02:34;;;;;;;8.30;4.40;;;;;;;19.63;42.08;100333.42;88253;1273;94772;-69
2022/05/11 05:04:43;;;;;;;7.10;3.80;;;;;;;20.15;41.30;100329.98;88257;1273;78460;-73
2022/05/11 05:06:53;;;;;;;9.20;4.10;;;;;;;20.31;40.70;100325.93;88239;1273;82182;-71
2022/05/11 05:09:04;;;;;;;11.00;4.40;;;;;;;19.79;40.45;100327.20;88208;1274;97761;-70
2022/05/11 05:11:13;;;;;;;7.60;4.20;;;;;;;19.63;40.82;100328.20;88260;1273;87510;-71
2022/05/11 05:13:22;;;;;;;7.60;4.70;;;;;;;20.20;40.63;100327.96;88270;1273;93836;-67
2022/05/11 05:15:31;;;;;;;8.10;3.90;;;;;;;20.96;39.94;100331.06;88247;1273;78212;-67
2022/05/11 05:17:44;;;;;;;13.00;4.60;;;;;;;21.36;39.58;100332.17;88240;1273;80928;-69
2022/05/11 05:19:56;;;;;;;8.90;4.20;;;;;;;21.73;39.03;100329.61;88286;1273;98446;-67
2022/05/11 05:22:08;;;;;;;11.20;5.20;;;;;;;22.06;38.50;100335.15;88217;1274;87456;-69
2022/05/11 05:24:18;;;;;;;7.30;4.10;;;;;;;22.41;38.10;100327.48;88261;1273;95860;-69
2022/05/11 05:26:28;;;;;;;8.50;4.30;;;;;;;22.75;38.11;100328.63;88189;1274;78508;-69
2022/05/11 05:31:10;;;;;;;7.50;4.50;;;;;;;23.61;36.71;100324.23;88296;1273;98599;-65
2022/05/11 05:33:19;;;;;;;11.30;4.70;;;;;;;23.81;36.00;100320.35;88251;1273;89255;-66
2022/05/11 05:35:32;;;;;;;9.20;4.30;;;;;;;23.94;35.28;100317.13;88178;1273;94165;-66
2022/05/11 05:37:44;;;;;;;8.30;4.40;;;;;;;24.25;35.40;100321.11;88256;1273;79991;-66
2022/05/11 05:39:53;;;;;;;10.00;4.20;;;;;;;25.04;34.76;100323.73;88319;1273;80314;-66
2022/05/11 05:42:17;;;;;;;23.50;18.70;;;;;;;25.72;34.00;100321.30;88271;1273;97802;-69
2022/05/11 05:44:32;;;;;;;26.00;22.30;;;;;;;26.41;33.83;100317.42;88257;1273;88034;-71
2022/05/11 05:46:42;;;;;;;8.00;5.10;;;;;;;26.74;33.06;100321.15;88278;1272;95973;-65
2022/05/11 05:48:57;;;;;;;10.80;5.10;;;;;;;26.99;32.60;100316.05;88203;1273;80804;-67
2022/05/11 05:51:13;;;;;;;8.70;4.00;;;;;;;26.84;31.96;100317.23;88211;1274;83205;-66
2022/05/11 05:53:27;;;;;;;7.60;4.10;;;;;;;26.56;31.94;100316.20;88288;1273;97064;-66
2022/05/11 05:55:42;;;;;;;9.70;4.10;;;;;;;26.41;31.63;100319.42;88205;1276;86519;-66
2022/05/11 05:57:57;;;;;;;6.70;4.10;;;;;;;26.23;31.23;100318.68;88262;1273;94544;-66
2022/05/11 06:00:12;;;;;;;8.80;4.20;;;;;;;26.02;31.05;100321.62;88215;1273;78692;-65
2022/05/11 06:02:26;;;;;;;7.50;4.40;;;;;;;25.75;31.43;100322.38;88297;1273;82995;-70
2022/05/11 06:04:52;;;;;;;12.30;4.80;;;;;;;25.71;31.32;100325.67;88294;1273;97764;-71
2022/05/11 06:07:04;;;;;;;9.30;4.30;;;;;;;25.82;31.22;100321.99;88246;1273;87845;-69
2022/05/11 06:09:13;;;;;;;12.60;5.20;;;;;;;26.02;31.19;100324.33;88185;1273;95415;-69
2022/05/11 06:11:22;;;;;;;10.30;4.60;;;;;;;26.29;31.30;100323.63;88285;1273;79690;-70
2022/05/11 06:13:32;;;;;;;8.50;4.70;;;;;;;26.54;30.92;100321.48;88269;1273;83210;-70
2022/05/11 06:15:56;;;;;;;8.30;4.70;;;;;;;27.00;30.78;100319.44;88266;1273;98385;-70
2022/05/11 06:18:07;;;;;;;12.50;4.00;;;;;;;27.35;30.45;100321.79;88265;1273;87969;-70
2022/05/11 06:20:17;;;;;;;10.60;4.00;;;;;;;27.46;30.51;100323.34;88275;1273;94675;-71
2022/05/11 06:22:26;;;;;;;8.00;4.10;;;;;;;28.06;29.90;100321.55;88236;1273;78709;-66
2022/05/11 06:24:37;;;;;;;8.80;4.30;;;;;;;28.62;29.08;100323.73;88296;1273;82878;-68
2022/05/11 06:26:47;;;;;;;9.20;4.40;;;;;;;28.58;29.02;100324.81;88279;1273;97582;-72
2022/05/11 06:28:57;;;;;;;13.00;4.30;;;;;;;28.66;28.85;100325.12;88248;1273;88682;-69
2022/05/11 06:31:12;;;;;;;6.50;4.00;;;;;;;28.86;28.52;100324.02;88271;1273;94650;-71
2022/05/11 06:33:23;;;;;;;11.60;4.30;;;;;;;29.15;28.79;100318.84;88269;1273;79835;-72
2022/05/11 06:35:33;;;;;;;9.10;4.00;;;;;;;29.31;28.52;100316.14;88251;1273;80465;-71
2022/05/11 06:37:44;;;;;;;8.40;4.70;;;;;;;29.28;28.32;100314.39;88288;1273;98095;-65
2022/05/11 06:39:54;;;;;;;7.90;4.40;;;;;;;29.46;27.78;100317.05;88286;1273;88960;-67
2022/05/11 06:42:06;;;;;;;14.20;4.80;;;;;;;29.48;27.72;100313.32;88278;1273;95062;-63
2022/05/11 06:44:15;;;;;;;9.80;4.80;;;;;;;29.32;27.68;100310.05;88259;1273;78969;-66
2022/05/11 06:46:25;;;;;;;9.90;4.20;;;;;;;29.28;27.72;100309.93;88298;1273;83434;-67
2022/05/11 06:48:34;;;;;;;10.80;4.50;;;;;;;29.35;27.24;100310.48;88262;1274;99095;-66
2022/05/11 06:50:44;;;;;;;8.70;4.60;;;;;;;29.80;27.38;100311.52;88262;1273;88037;-65
2022/05/11 06:52:54;;;;;;;12.30;4.60;;;;;;;29.76;27.35;100312.60;88260;1273;95476;-66
2022/05/11 07:00:05;;;;;;;8.20;4.60;;;;;;;31.51;26.60;100307.11;88262;1273;98059;-71
2022/05/11 07:02:13;;;;;;;8.10;4.30;;;;;;;31.71;26.04;100302.92;88271;1273;88755;-66
2022/05/11 07:04:23;;;;;;;6.50;4.40;;;;;;;31.93;26.06;100299.27;88242;1273;95009;-66
2022/05/11 07:06:35;;;;;;;10.10;4.70;;;;;;;32.44;25.89;100292.29;88250;1273;78807;-67
2022/05/11 07:08:46;;;;;;;9.50;5.20;;;;;;;32.69;25.25;100290.65;88177;1276;82544;-67
2022/05/11 07:13:27;;;;;;;9.40;6.10;;;;;;;33.79;24.58;100285.84;88269;1273;87324;-70
2022/05/11 07:15:39;;;;;;;11.00;4.90;;;;;;;33.89;24.01;100285.48;88175;1276;94121;-70
2022/05/11 07:17:52;;;;;;;9.10;4.40;;;;;;;33.92;24.45;100283.65;88257;1273;78164;-66
2022/05/11 07:20:09;;;;;;;11.20;4.80;;;;;;;34.46;23.97;100279.74;88267;1273;81279;-67
2022/05/11 07:22:18;;;;;;;8.90;4.30;;;;;;;34.63;23.37;100275.71;88269;1273;99361;-71
2022/05/11 07:24:28;;;;;;;9.20;4.50;;;;;;;34.60;23.62;100277.14;88268;1273;87428;-71
2022/05/11 07:26:41;;;;;;;7.00;4.50;;;;;;;34.98;22.87;100273.16;88225;1273;95862;-71
2022/05/11 07:28:52;;;;;;;;;;;;;;;35.10;22.94;100270.01;88290;1274;79006;-70
2022/05/11 07:31:01;;;;;;;8.80;4.30;;;;;;;35.35;22.46;100267.20;88196;1274;81807;-69
2022/05/11 07:33:10;;;;;;;10.00;3.90;;;;;;;35.29;22.13;100263.23;88275;1273;99065;-70
2022/05/11 07:35:20;;;;;;;11.00;4.90;;;;;;;35.31;22.26;100263.17;88269;1273;87807;-70
2022/05/11 07:37:32;;;;;;;10.50;5.00;;;;;;;35.22;22.51;100259.75;88264;1273;94393;-68
2022/05/11 07:39:44;;;;;;;10.50;4.70;;;;;;;34.55;22.60;100261.42;88275;1273;78742;-75
2022/05/11 07:41:56;;;;;;;9.10;4.30;;;;;;;33.98;22.63;100258.98;88293;1273;81475;-66
2022/05/11 07:44:09;;;;;;;12.00;4.40;;;;;;;33.81;22.65;100261.48;88252;1273;98566;-67
2022/05/11 07:46:19;;;;;;;;;;;;;;;33.57;22.79;100255.00;88303;1273;88224;-66
2022/05/11 07:48:28;;;;;;;8.30;4.20;;;;;;;33.07;22.96;100253.31;88271;1273;93628;-67
2022/05/11 07:50:41;;;;;;;11.30;4.80;;;;;;;32.56;23.27;100255.27;88239;1273;78437;-67
2022/05/11 07:52:54;;;;;;;7.90;4.10;;;;;;;32.17;23.91;100253.73;88263;1274;83644;-76
2022/05/11 07:55:08;;;;;;;7.00;4.40;;;;;;;32.02;23.90;100252.48;88279;1273;99216;-75
2022/05/11 07:59:59;;;;;;;8.50;4.70;;;;;;;32.05;24.84;100246.61;88239;1273;95399;-75
2022/05/11 08:02:08;;;;;;;;;;;;;;;32.42;24.70;100242.37;88261;1273;81294;-65
2022/05/11 08:04:21;;;;;;;9.50;4.10;;;;;;;32.40;24.86;100240.34;88290;1273;80047;-70
2022/05/11 08:06:32;;;;;;;6.80;3.90;;;;;;;32.36;24.28;100235.77;88287;1273;96828;-67
2022/05/11 08:08:43;;;;;;;11.30;4.50;;;;;;;32.05;24.23;100234.40;88290;1273;89131;-66
2022/05/11 08:10:58;;;;;;;9.40;4.40;;;;;;;31.90;24.15;100233.92;88193;1276;95557;-70
2022/05/11 08:13:12;;;;;;;8.40;4.10;;;;;;;31.48;24.47;100234.41;88295;1273;78819;-71
2022/05/11 08:15:30;;;;;;;10.30;4.70;;;;;;;31.22;24.76;100238.45;88288;1273;80577;-69
2022/05/11 08:17:43;;;;;;;9.30;4.40;;;;;;;30.93;25.06;100234.95;88270;1273;98205;-78
2022/05/11 08:19:50;;;;;;;;;;;;;;;30.63;25.58;100236.34;88317;1273;86766;-79
2022/05/11 08:22:04;;;;;;;11.20;4.30;;;;;;;30.20;26.28;100238.35;88275;1273;95059;-70
2022/05/11 08:24:17;;;;;;;10.90;4.80;;;;;;;29.89;26.21;100237.24;88175;1276;79860;-67
2022/05/11 08:26:29;;;;;;;8.10;4.30;;;;;;;29.58;27.00;100238.45;88289;1273;81791;-68
2022/05/11 08:28:38;;;;;;;7.10;4.50;;;;;;;29.41;26.96;100241.46;88178;1274;98317;-67
2022/05/11 08:33:26;;;;;;;8.80;4.20;;;;;;;29.35;27.74;100241.06;88230;1273;94129;-73
2022/05/11 08:35:34;;;;;;;8.50;4.20;;;;;;;29.51;27.88;100242.60;88202;1273;79476;-77
2022/05/11 08:37:44;;;;;;;9.60;5.00;;;;;;;30.01;27.61;100241.80;88185;1273;82892;-77
2022/05/11 08:39:54;;;;;;;10.40;4.20;;;;;;;30.49;27.63;100235.49;88199;1273;97608;-77
2022/05/11 08:42:05;;;;;;;9.00;4.10;;;;;;;30.51;27.59;100236.07;88223;1273;87949;-68
2022/05/11 08:44:17;;;;;;;8.10;4.50;;;;;;;30.79;27.35;100236.85;88190;1273;95754;-66
2022/05/11 08:46:39;;;;;;;7.80;4.20;;;;;;;30.60;27.34;100239.86;88225;1273;78420;-67
2022/05/11 08:48:59;;;;;;;7.00;4.30;;;;;;;30.59;27.82;100240.17;88204;1273;81496;-68
2022/05/11 08:51:21;;;;;;;12.80;5.20;;;;;;;30.95;27.59;100236.70;88220;1273;99505;-75
2022/05/11 08:53:39;;;;;;;10.00;4.90;;;;;;;31.18;27.34;100240.84;88215;1273;89225;-76
2022/05/11 08:55:55;;;;;;;8.80;4.60;;;;;;;31.22;27.09;100240.88;88201;1273;95274;-78
2022/05/11 08:58:13;;;;;;;6.80;4.30;;;;;;;31.49;27.01;100236.97;88226;1273;78327;-77
2022/05/11 09:00:26;;;;;;;7.50;3.80;;;;;;;31.72;27.06;100233.98;88196;1276;84172;-76
2022/05/11 09:02:44;;;;;;;;;;;;;;;31.85;27.09;100231.77;88210;1273;98101;-67
2022/05/11 09:04:59;;;;;;;6.80;4.50;;;;;;;32.08;27.10;100227.55;88191;1273;87591;-70
2022/05/11 09:07:11;;;;;;;8.40;4.20;;;;;;;32.12;26.66;100225.27;88222;1273;95334;-69
2022/05/11 09:09:21;;;;;;;8.30;4.00;;;;;;;32.11;26.14;100226.83;88204;1273;79411;-69
2022/05/11 09:11:37;;;;;;;8.40;4.10;;;;;;;31.85;25.85;100225.40;88223;1273;81847;-71
2022/05/11 09:13:51;;;;;;;9.80;4.60;;;;;;;31.37;26.39;100224.79;88204;1273;99158;-68
2022/05/11 09:16:07;;;;;;;6.30;4.10;;;;;;;31.13;26.32;100224.78;88177;1276;87741;-68
2022/05/11 09:18:19;;;;;;;8.40;4.10;;;;;;;30.94;26.83;100227.80;88209;1273;93871;-68
2022/05/11 09:20:36;;;;;;;8.50;4.00;;;;;;;31.04;26.99;100231.05;88193;1273;78812;-69
2022/05/11 09:23:04;;;;;;;6.00;3.50;;;;;;;31.09;27.03;100228.14;88165;1276;81839;-69
2022/05/11 09:25:25;;;;;;;10.20;4.30;;;;;;;31.02;27.23;100231.86;88201;1273;98522;-70
2022/05/11 09:27:38;;;;;;;11.50;4.90;;;;;;;30.94;27.43;100233.98;88217;1274;88664;-75
2022/05/11 09:29:55;;;;;;;10.10;4.80;;;;;;;30.84;27.35;100241.42;88261;1273;94679;-76
2022/05/11 09:32:31;;;;;;;5.60;3.80;;;;;;;30.87;27.63;100236.92;88254;1273;78532;-76
2022/05/11 09:34:45;;;;;;;9.40;4.10;;;;;;;31.06;27.95;100235.80;88293;1273;82958;-76
2022/05/11 09:37:07;;;;;;;6.50;4.40;;;;;;;31.29;27.26;100237.48;88304;1273;98502;-68
2022/05/11 09:39:21;;;;;;;6.60;3.60;;;;;;;31.42;27.17;100238.82;88214;1276;89422;-70
2022/05/11 09:41:35;;;;;;;5.30;3.70;;;;;;;31.53;27.04;100242.62;88283;1273;95746;-70
2022/05/11 09:43:47;;;;;;;8.20;4.10;;;;;;;31.40;26.66;100234.98;88289;1273;79485;-72
2022/05/11 09:45:58;;;;;;;7.10;4.10;;;;;;;31.27;26.97;100232.09;88326;1273;81805;-67
2022/05/11 09:48:20;;;;;;;8.50;4.00;;;;;;;31.35;27.43;100234.42;88272;1271;99219;-66
2022/05/11 09:50:30;;;;;;;9.90;4.00;;;;;;;31.44;27.49;100225.98;88209;1273;88207;-66
2022/05/11 09:52:41;;;;;;;7.30;3.90;;;;;;;31.34;27.67;100220.89;88248;1273;93614;-66
2022/05/11 09:54:55;;;;;;;5.40;3.70;;;;;;;31.16;27.80;100218.26;88278;1273;78271;-66
2022/05/11 09:57:05;;;;;;;;;;;;;;;31.14;27.96;100219.49;88279;1273;80756;-66
2022/05/11 09:59:30;;;;;;;8.40;4.20;;;;;;;30.99;27.86;100218.43;88286;1273;97466;-66
2022/05/11 10:01:41;;;;;;;6.40;3.70;;;;;;;30.90;27.52;100207.95;88323;1273;87982;-66
2022/05/11 10:03:59;;;;;;;6.30;4.00;;;;;;;30.78;28.17;100206.69;88276;1273;92268;-66
2022/05/11 10:06:14;;;;;;;5.80;3.90;;;;;;;30.90;28.02;100201.96;88288;1273;79663;-66
2022/05/11 10:08:30;;;;;;;5.20;4.10;;;;;;;31.02;27.90;100202.54;88271;1273;80602;-72
2022/05/11 10:10:48;;;;;;;5.10;3.60;;;;;;;31.04;27.66;100197.41;88286;1273;98469;-72
2022/05/11 10:13:03;;;;;;;5.60;3.70;;;;;;;31.12;28.33;100194.36;88259;1273;88936;-71
2022/05/11 10:22:53;;;;;;;8.30;4.00;;;;;;;30.89;27.66;100184.58;88299;1273;99272;-73
2022/05/11 10:25:17;;;;;;;6.10;4.30;;;;;;;31.02;27.78;100184.85;88271;1273;89961;-72
2022/05/11 10:27:40;;;;;;;5.80;4.40;;;;;;;31.00;27.72;100184.58;88198;1273;94092;-71
2022/05/11 10:30:05;;;;;;;5.30;3.60;;;;;;;30.96;27.77;100180.85;88263;1273;79587;-76
2022/05/11 10:32:26;;;;;;;7.90;3.70;;;;;;;31.05;27.63;100184.42;88283;1273;82560;-74
2022/05/11 10:34:45;;;;;;;5.80;3.60;;;;;;;31.15;27.13;100186.23;88195;1273;96919;-73
2022/05/11 10:37:05;;;;;;;5.80;4.00;;;;;;;31.25;27.31;100178.37;88259;1273;88765;-74
2022/05/11 10:39:39;;;;;;;4.30;3.60;;;;;;;31.16;27.55;100179.88;88266;1273;95245;-72
2022/05/11 10:41:57;;;;;;;7.10;4.40;;;;;;;31.24;27.71;100175.15;88250;1273;80466;-66
2022/05/11 10:44:25;;;;;;;5.90;3.60;;;;;;;31.33;27.67;100174.73;88214;1274;82301;-66
2022/05/11 10:46:45;;;;;;;10.70;3.80;;;;;;;31.54;27.60;100174.01;88264;1273;98972;-66